Terminal Aerodrome Forecast
Issued by NWS

Current Version | Previous Version | Graphics & Text | Print | Product List | Glossary Off
Versions: 1 2 3 4 5 6 7 8 9 10 11 12 13 14 15 16 17 18 19 20

000
FTUS41 KILN 020500
TAFLUK
TAF
KLUK 020537Z 0206/0306 22006KT P6SM BKN250
     FM020800 21005KT P6SM VCTS BKN080CB
     FM021000 21005KT P6SM -SHRA VCTS OVC040CB
      TEMPO 0210/0213 3SM -TSRA OVC028CB
     FM021400 22008KT P6SM VCSH BKN040
     FM021700 24010KT P6SM VCTS BKN040CB
     FM022100 23007KT P6SM SCT040
     FM030000 VRB03KT P6SM SCT250=

USA.gov is the U.S. government's official web portal to all federal, state and local government web resources and services.